Time;durP1;ratioP1;P1;durP2;ratioP2;P2;SDS_P1;SDS_P2;PMS_P1;PMS_P2;Temp;Humidity;BMP_temperature;BMP_pressure;BME280_temperature;BME280_humidity;BME280_pressure;Samples;Min_cycle;Max_cycle;Signal;HPM_P1;HPM_P2
2021/01/23 05:02:42;;;;;;;14.02;7.45;;;;;;;3.53;89.41;97786.03;4932772;23;20079;-59
2021/01/23 05:05:08;;;;;;;13.00;7.40;;;;;;;3.55;88.37;97791.97;4910350;29;20048;-58
2021/01/23 05:07:44;;;;;;;15.25;6.82;;;;;;;3.58;88.00;97779.97;4911473;29;20481;-59
2021/01/23 05:10:23;;;;;;;12.32;7.80;;;;;;;3.60;89.15;97776.03;4911261;29;20044;-59
2021/01/23 05:12:55;;;;;;;12.27;7.30;;;;;;;3.58;89.07;97774.63;4911155;29;20552;-58
2021/01/23 05:15:32;;;;;;;15.27;7.93;;;;;;;3.56;88.49;97779.44;4895813;29;20059;-60
2021/01/23 05:18:06;;;;;;;12.38;7.15;;;;;;;3.43;87.95;97785.00;4896058;29;20162;-58
2021/01/23 05:20:49;;;;;;;12.68;6.82;;;;;;;3.34;87.78;97773.06;4895724;29;20347;-59
2021/01/23 05:23:26;;;;;;;9.15;6.57;;;;;;;3.24;88.46;97774.41;4894985;29;20047;-58
2021/01/23 05:25:53;;;;;;;11.48;6.10;;;;;;;3.14;87.63;97766.19;4895189;29;20544;-59
2021/01/23 05:28:31;;;;;;;9.57;6.55;;;;;;;2.98;87.80;97768.72;4895232;29;20106;-59
2021/01/23 05:30:58;;;;;;;10.45;5.78;;;;;;;2.89;88.52;97761.03;4895407;29;20146;-58
2021/01/23 05:33:28;;;;;;;9.85;6.47;;;;;;;2.97;88.65;97751.09;4891445;29;20051;-59
2021/01/23 05:36:05;;;;;;;9.30;6.45;;;;;;;2.97;88.10;97748.41;4895158;29;20074;-59
2021/01/23 05:38:34;;;;;;;10.57;5.47;;;;;;;2.88;88.59;97739.94;4909834;29;20079;-59
2021/01/23 05:41:08;;;;;;;7.20;5.03;;;;;;;2.77;88.01;97732.75;4883550;29;20497;-58
2021/01/23 05:43:49;;;;;;;15.25;5.50;;;;;;;2.65;88.80;97730.06;4876328;29;20144;-59
2021/01/23 05:46:27;;;;;;;7.72;5.32;;;;;;;2.83;89.37;97731.81;4891100;29;20135;-58
2021/01/23 05:48:54;;;;;;;8.23;5.53;;;;;;;2.55;88.41;97727.09;4904701;29;20060;-59
2021/01/23 05:51:21;;;;;;;9.30;5.35;;;;;;;2.51;89.71;97723.28;4891784;29;20072;-59
2021/01/23 05:53:47;;;;;;;9.93;5.82;;;;;;;2.66;90.21;97722.84;4887624;29;20063;-59
2021/01/23 05:56:13;;;;;;;10.13;6.55;;;;;;;2.81;89.67;97720.53;4890381;29;20413;-60
2021/01/23 05:58:41;;;;;;;9.10;6.00;;;;;;;2.55;88.68;97730.59;4889387;29;20044;-59
2021/01/23 06:01:21;;;;;;;11.85;5.57;;;;;;;2.47;88.69;97722.91;4889135;29;20040;-60
2021/01/23 06:03:51;;;;;;;11.20;6.03;;;;;;;2.46;88.96;97728.47;4891890;29;20143;-59
2021/01/23 06:06:18;;;;;;;8.93;5.55;;;;;;;2.52;88.83;97727.59;4891285;29;20545;-59
2021/01/23 06:08:47;;;;;;;12.93;6.07;;;;;;;2.42;88.60;97733.44;4889262;29;20032;-60
2021/01/23 06:11:19;;;;;;;7.70;5.22;;;;;;;2.32;88.27;97733.19;4879224;29;20044;-59
2021/01/23 06:13:49;;;;;;;13.00;5.70;;;;;;;2.34;88.17;97740.97;4890083;29;20046;-60
2021/01/23 06:16:33;;;;;;;10.55;6.20;;;;;;;2.55;88.86;97753.78;4890263;29;20044;-60
2021/01/23 06:19:02;;;;;;;11.05;5.55;;;;;;;2.45;88.87;97764.19;4874096;29;20044;-59
2021/01/23 06:21:43;;;;;;;8.13;4.90;;;;;;;2.25;87.88;97769.00;4891438;29;20044;-59
2021/01/23 06:24:14;;;;;;;9.48;5.85;;;;;;;2.29;88.83;97763.00;4891077;29;20048;-59
2021/01/23 06:26:54;;;;;;;8.25;5.55;;;;;;;2.27;88.63;97758.91;4891506;29;20127;-59
2021/01/23 06:29:41;;;;;;;9.68;5.80;;;;;;;2.15;87.95;97757.00;4891477;29;20055;-58
2021/01/23 06:32:13;;;;;;;12.18;6.15;;;;;;;2.19;87.46;97758.19;4889669;29;20044;-58
2021/01/23 06:34:49;;;;;;;10.00;6.72;;;;;;;2.16;88.46;97760.50;4891267;29;20493;-58
2021/01/23 06:37:37;;;;;;;11.60;6.82;;;;;;;2.00;88.58;97761.09;4891242;29;20083;-58
2021/01/23 06:40:05;;;;;;;10.80;5.85;;;;;;;2.00;88.29;97758.44;4871967;29;20045;-61
2021/01/23 06:42:31;;;;;;;9.98;5.72;;;;;;;2.00;87.73;97764.59;4873109;29;20148;-58
2021/01/23 06:45:13;;;;;;;8.82;5.95;;;;;;;1.91;87.65;97773.94;4872063;29;20040;-58
2021/01/23 06:47:43;;;;;;;10.75;6.63;;;;;;;1.95;88.17;97774.31;4872286;29;20045;-59
2021/01/23 06:50:10;;;;;;;11.50;6.13;;;;;;;1.80;87.39;97778.16;4872308;29;20040;-58
2021/01/23 06:52:49;;;;;;;10.65;5.90;;;;;;;2.11;88.58;97787.81;4866481;29;20180;-58
2021/01/23 06:55:16;;;;;;;8.68;5.05;;;;;;;2.01;87.36;97790.19;4867889;29;20041;-59
2021/01/23 06:57:48;;;;;;;13.63;5.88;;;;;;;2.07;86.65;97794.66;4871008;29;20058;-59
2021/01/23 07:00:14;;;;;;;9.23;5.47;;;;;;;2.07;86.90;97793.84;4872180;29;20100;-59
2021/01/23 07:02:40;;;;;;;9.23;5.60;;;;;;;1.81;86.52;97798.44;4890794;29;20446;-58
2021/01/23 07:05:08;;;;;;;10.48;5.82;;;;;;;1.94;87.52;97797.47;4881818;29;20536;-58
2021/01/23 07:07:39;;;;;;;9.95;5.93;;;;;;;1.76;87.04;97806.25;4870099;29;20056;-61
2021/01/23 07:10:15;;;;;;;13.48;5.72;;;;;;;1.84;87.93;97807.84;4883315;29;20044;-58
2021/01/23 07:12:49;;;;;;;9.80;5.93;;;;;;;1.87;86.77;97812.69;4884410;29;20056;-59
2021/01/23 07:15:24;;;;;;;9.13;5.65;;;;;;;1.99;87.70;97831.41;4886338;29;20051;-59
2021/01/23 07:17:49;;;;;;;18.50;6.68;;;;;;;1.81;86.71;97825.06;4884943;29;20311;-60
2021/01/23 07:20:17;;;;;;;16.05;7.07;;;;;;;1.89;85.99;97836.47;4885905;29;20516;-57
2021/01/23 07:22:43;;;;;;;13.15;5.70;;;;;;;1.93;86.80;97830.47;4875115;29;20050;-60
2021/01/23 07:25:16;;;;;;;13.10;5.45;;;;;;;1.99;86.46;97839.41;4886547;29;20437;-58
2021/01/23 07:27:43;;;;;;;8.35;4.15;;;;;;;1.72;86.54;97845.06;4888017;29;20044;-58
2021/01/23 07:30:15;;;;;;;5.93;3.80;;;;;;;1.68;86.24;97859.84;4884412;29;20052;-58
2021/01/23 07:32:43;;;;;;;7.88;3.63;;;;;;;1.79;86.07;97858.28;4886198;29;20036;-58
2021/01/23 07:35:10;;;;;;;5.32;3.63;;;;;;;1.59;86.84;97863.00;4888045;29;20048;-58
2021/01/23 07:37:53;;;;;;;6.47;3.88;;;;;;;1.45;86.35;97867.63;4884191;29;20036;-58
2021/01/23 07:40:25;;;;;;;5.93;3.50;;;;;;;1.45;86.57;97881.75;4883689;29;20059;-58
2021/01/23 07:42:52;;;;;;;7.25;3.88;;;;;;;1.45;87.82;97868.44;4854213;29;20115;-59
2021/01/23 07:45:19;;;;;;;5.63;2.85;;;;;;;1.36;87.66;97872.41;4872103;29;20503;-58
2021/01/23 07:48:16;;;;;;;7.75;3.97;;;;;;;1.48;87.45;97880.50;4873489;29;20037;-57
2021/01/23 07:50:46;;;;;;;3.67;2.45;;;;;;;1.40;88.09;97881.56;4874319;29;20042;-59
2021/01/23 07:53:24;;;;;;;3.22;2.40;;;;;;;1.49;87.28;97878.66;4880020;29;20048;-58
2021/01/23 07:55:53;;;;;;;4.47;2.80;;;;;;;1.38;87.65;97883.66;4880874;29;20043;-58
2021/01/23 07:58:21;;;;;;;2.85;2.00;;;;;;;1.60;88.04;97885.94;4899064;29;20690;-62
2021/01/23 08:00:48;;;;;;;3.40;2.10;;;;;;;1.77;86.58;97884.31;4884508;29;20082;-59
2021/01/23 08:03:13;;;;;;;2.53;2.03;;;;;;;1.81;87.51;97880.19;4895033;29;20098;-59
2021/01/23 08:05:50;;;;;;;3.45;2.30;;;;;;;1.54;86.40;97892.13;4881860;29;20035;-59
2021/01/23 08:08:35;;;;;;;3.58;2.30;;;;;;;1.74;86.87;97879.44;4897354;29;20092;-58
2021/01/23 08:11:02;;;;;;;2.67;2.17;;;;;;;1.68;86.66;97877.66;4888056;29;20102;-59
2021/01/23 08:13:31;;;;;;;3.15;2.20;;;;;;;1.73;86.28;97880.50;4880704;29;20601;-59
2021/01/23 08:16:14;;;;;;;3.78;1.90;;;;;;;1.72;86.98;97886.84;4880111;29;20134;-58
2021/01/23 08:18:41;;;;;;;2.92;2.22;;;;;;;1.62;86.78;97891.84;4868082;29;20123;-59
2021/01/23 08:21:16;;;;;;;3.25;2.28;;;;;;;1.70;86.49;97899.56;4861455;29;20177;-58
2021/01/23 08:23:41;;;;;;;4.22;2.05;;;;;;;1.74;85.92;97898.06;4868831;29;20035;-59
2021/01/23 08:26:07;;;;;;;2.83;2.15;;;;;;;1.88;86.39;97898.78;4882146;29;20410;-59
2021/01/23 08:28:32;;;;;;;2.35;2.03;;;;;;;1.73;85.68;97889.25;4888741;29;20032;-59
2021/01/23 08:31:14;;;;;;;2.75;2.28;;;;;;;1.76;86.77;97904.81;4897061;29;20075;-59
2021/01/23 08:33:41;;;;;;;2.75;2.00;;;;;;;1.78;86.59;97905.41;4896767;29;20058;-59
2021/01/23 08:36:07;;;;;;;2.50;1.90;;;;;;;1.54;85.62;97902.78;4880944;29;20051;-59
2021/01/23 08:38:32;;;;;;;5.43;2.20;;;;;;;1.60;87.22;97901.91;4890209;29;20046;-59
2021/01/23 08:40:58;;;;;;;3.35;2.10;;;;;;;1.68;86.44;97906.97;4896604;29;20044;-59
2021/01/23 08:43:25;;;;;;;3.20;2.22;;;;;;;1.74;85.57;97906.88;4896258;29;20549;-60
2021/01/23 08:45:51;;;;;;;3.20;2.55;;;;;;;1.86;86.18;97906.97;4896117;29;20078;-58
2021/01/23 08:48:16;;;;;;;2.53;2.05;;;;;;;1.85;85.31;97910.69;4896486;29;20122;-61
2021/01/23 08:50:42;;;;;;;3.35;2.20;;;;;;;1.84;85.30;97913.59;4895085;29;20043;-61
2021/01/23 08:53:09;;;;;;;3.63;2.80;;;;;;;1.68;85.59;97921.09;4879930;29;20040;-61
2021/01/23 08:55:36;;;;;;;3.42;2.45;;;;;;;1.79;86.16;97908.91;4895839;29;20125;-59
2021/01/23 08:58:02;;;;;;;4.80;3.08;;;;;;;1.77;85.97;97909.13;4880266;29;20040;-61
2021/01/23 09:00:27;;;;;;;3.75;2.40;;;;;;;1.94;85.26;97913.88;4880235;29;20051;-58
2021/01/23 09:02:53;;;;;;;5.45;3.05;;;;;;;1.83;85.08;97923.41;4880325;29;20103;-59
2021/01/23 09:05:19;;;;;;;7.45;3.28;;;;;;;1.80;85.59;97921.19;4896033;29;20039;-59
2021/01/23 09:07:44;;;;;;;5.93;3.47;;;;;;;1.65;85.27;97923.38;4895989;29;20336;-59
2021/01/23 09:10:11;;;;;;;6.05;3.70;;;;;;;1.76;85.10;97934.13;4895319;29;20471;-58
2021/01/23 09:12:37;;;;;;;5.38;4.22;;;;;;;1.70;85.04;97937.69;4895589;29;20036;-58
2021/01/23 09:15:04;;;;;;;4.90;3.42;;;;;;;1.89;86.91;97929.72;4895464;29;20032;-59
2021/01/23 09:17:30;;;;;;;6.75;4.22;;;;;;;1.79;85.67;97940.88;4867604;29;20036;-59
2021/01/23 09:19:55;;;;;;;7.75;4.82;;;;;;;1.91;85.35;97935.63;4875457;29;20439;-59
2021/01/23 09:22:22;;;;;;;7.38;4.65;;;;;;;1.72;85.03;97943.59;4859193;29;20418;-60
2021/01/23 09:24:47;;;;;;;8.93;5.35;;;;;;;1.79;85.42;97938.19;4874377;29;20072;-59
2021/01/23 09:27:13;;;;;;;7.63;4.72;;;;;;;1.83;85.42;97946.59;4877136;29;20135;-59
2021/01/23 09:29:39;;;;;;;7.57;5.10;;;;;;;1.86;85.18;97951.44;4876870;29;20502;-59
2021/01/23 09:32:06;;;;;;;7.45;4.82;;;;;;;1.83;85.70;97946.59;4892129;29;20032;-58
2021/01/23 09:34:35;;;;;;;7.43;4.90;;;;;;;1.74;85.47;97951.34;4890381;29;20040;-58
2021/01/23 09:37:02;;;;;;;7.25;4.68;;;;;;;1.56;85.48;97953.97;4889668;29;20043;-58
2021/01/23 09:39:30;;;;;;;7.63;5.00;;;;;;;1.83;86.22;97952.72;4875477;29;20048;-58
2021/01/23 09:41:57;;;;;;;7.57;5.03;;;;;;;1.75;85.73;97939.66;4877199;29;20066;-59
2021/01/23 09:44:23;;;;;;;7.30;5.28;;;;;;;1.64;85.53;97946.50;4875945;29;20108;-58
2021/01/23 09:46:49;;;;;;;8.77;6.07;;;;;;;1.88;85.41;97942.22;4875240;29;20450;-59
2021/01/23 09:49:15;;;;;;;11.02;5.90;;;;;;;2.02;85.00;97958.91;4872520;29;20074;-59
2021/01/23 09:51:41;;;;;;;9.05;5.45;;;;;;;1.95;84.92;97961.63;4890163;29;20513;-58
2021/01/23 09:54:06;;;;;;;10.00;5.68;;;;;;;1.88;84.80;97963.53;4894592;29;20047;-58
2021/01/23 09:56:32;;;;;;;9.65;6.13;;;;;;;1.89;84.52;97964.34;4889387;29;20043;-59
2021/01/23 09:58:58;;;;;;;8.13;5.30;;;;;;;1.88;84.45;97968.84;4893035;29;20549;-58
2021/01/23 10:01:23;;;;;;;8.30;5.68;;;;;;;2.07;85.30;97973.22;4891682;29;20749;-59
2021/01/23 10:03:49;;;;;;;12.35;6.93;;;;;;;2.01;85.27;97971.41;4891033;29;20329;-62
2021/01/23 10:06:14;;;;;;;8.30;5.75;;;;;;;1.83;84.36;97975.88;4890862;29;20062;-61
2021/01/23 10:08:40;;;;;;;9.23;6.38;;;;;;;1.99;84.42;97984.13;4889103;29;20409;-59
2021/01/23 10:11:05;;;;;;;8.30;5.20;;;;;;;1.95;84.96;97992.78;4878591;29;20094;-59
2021/01/23 10:13:31;;;;;;;10.07;5.25;;;;;;;1.92;84.61;97988.72;4880240;29;20469;-58
2021/01/23 10:15:56;;;;;;;6.70;4.63;;;;;;;1.81;85.02;97989.41;4871304;29;20048;-59
2021/01/23 10:18:22;;;;;;;6.95;4.38;;;;;;;1.76;85.54;97994.56;4871998;29;20059;-60
2021/01/23 10:20:49;;;;;;;5.43;3.78;;;;;;;1.67;84.59;98009.19;4881795;29;20051;-58
2021/01/23 10:23:15;;;;;;;5.70;3.80;;;;;;;1.85;85.38;98013.78;4870244;29;20446;-58
2021/01/23 10:25:41;;;;;;;5.57;3.45;;;;;;;1.86;85.41;98016.22;4878786;29;20042;-59
2021/01/23 10:28:08;;;;;;;6.18;3.72;;;;;;;1.85;85.43;98017.25;4858166;29;20529;-59
2021/01/23 10:30:34;;;;;;;4.60;3.05;;;;;;;1.95;85.06;98025.59;4866144;29;20036;-58
2021/01/23 10:33:00;;;;;;;4.30;3.05;;;;;;;1.91;84.17;98032.38;4885341;29;20075;-58
2021/01/23 10:35:27;;;;;;;4.40;3.08;;;;;;;1.75;84.12;98028.38;4889900;29;20130;-58
2021/01/23 10:37:53;;;;;;;4.75;3.33;;;;;;;1.83;84.83;98037.97;4880632;29;20069;-59
2021/01/23 10:40:21;;;;;;;6.22;3.00;;;;;;;1.88;84.61;98047.97;4885118;29;20043;-58
2021/01/23 10:42:47;;;;;;;4.65;3.28;;;;;;;1.81;84.96;98048.84;4893846;29;20051;-59
2021/01/23 10:45:14;;;;;;;3.97;3.00;;;;;;;1.81;85.27;98056.03;4892998;29;20055;-59
2021/01/23 10:47:39;;;;;;;6.30;3.10;;;;;;;1.82;85.21;98068.31;4891136;29;20039;-58
2021/01/23 10:50:06;;;;;;;4.43;2.92;;;;;;;1.99;85.01;98069.41;4875720;29;20044;-59
2021/01/23 10:52:34;;;;;;;5.95;3.58;;;;;;;2.07;84.82;98084.34;4873951;29;20048;-59
2021/01/23 10:55:06;;;;;;;3.97;2.63;;;;;;;1.79;84.00;98080.22;4877106;29;20529;-59
2021/01/23 10:57:33;;;;;;;4.15;2.60;;;;;;;1.91;84.62;98079.53;4879077;29;20044;-58
2021/01/23 10:59:59;;;;;;;5.68;3.05;;;;;;;2.08;85.18;98091.25;4870033;29;20075;-59
2021/01/23 11:02:27;;;;;;;3.80;2.42;;;;;;;1.97;84.14;98089.31;4893030;29;20099;-58
2021/01/23 11:04:52;;;;;;;3.53;2.28;;;;;;;1.89;85.40;98095.72;4876063;29;20038;-61
2021/01/23 11:07:19;;;;;;;3.72;2.95;;;;;;;2.01;85.49;98101.16;4876802;29;20040;-59
2021/01/23 11:09:45;;;;;;;5.57;2.25;;;;;;;1.99;85.13;98108.56;4874231;29;20583;-59
2021/01/23 11:12:11;;;;;;;3.42;2.13;;;;;;;2.07;84.65;98111.81;4878341;29;20063;-59
2021/01/23 11:14:36;;;;;;;5.13;2.30;;;;;;;1.99;84.19;98109.38;4908570;29;20079;-59
2021/01/23 11:17:02;;;;;;;3.85;2.40;;;;;;;1.99;85.04;98119.22;4882842;29;20040;-59
2021/01/23 11:19:28;;;;;;;2.85;2.25;;;;;;;2.09;84.99;98124.88;4893417;29;20075;-58
2021/01/23 11:21:54;;;;;;;3.30;2.22;;;;;;;2.00;84.60;98123.53;4877115;29;20110;-59
2021/01/23 11:24:21;;;;;;;3.42;2.28;;;;;;;1.94;83.82;98116.41;4894187;29;20069;-58
2021/01/23 11:26:47;;;;;;;3.47;2.50;;;;;;;1.98;84.38;98120.25;4894078;29;20051;-59
2021/01/23 11:29:12;;;;;;;3.85;2.60;;;;;;;2.11;83.48;98120.97;4892412;29;20055;-59
2021/01/23 11:31:38;;;;;;;5.50;3.00;;;;;;;2.21;84.39;98114.34;4894406;29;20046;-59
2021/01/23 11:34:04;;;;;;;4.30;2.60;;;;;;;2.11;84.05;98120.16;4880560;29;20103;-58
2021/01/23 11:36:31;;;;;;;4.30;3.00;;;;;;;2.25;84.02;98123.56;4902515;29;20050;-59
2021/01/23 11:38:57;;;;;;;6.55;3.40;;;;;;;2.21;83.59;98120.50;4888284;29;20513;-59
2021/01/23 11:41:23;;;;;;;3.50;2.80;;;;;;;2.31;84.15;98117.38;4885927;29;20036;-58
2021/01/23 11:43:49;;;;;;;3.95;2.67;;;;;;;2.23;84.29;98121.09;4888925;29;20044;-59
2021/01/23 11:46:15;;;;;;;3.63;2.67;;;;;;;2.28;83.27;98115.13;4894745;29;20386;-58
2021/01/23 11:48:40;;;;;;;3.13;2.45;;;;;;;2.06;84.16;98125.34;4878427;29;20036;-58
2021/01/23 11:51:06;;;;;;;4.38;2.50;;;;;;;2.14;84.29;98117.88;4878152;29;20044;-59
2021/01/23 11:53:32;;;;;;;3.28;2.30;;;;;;;2.09;84.50;98123.03;4879471;29;20079;-59
2021/01/23 11:55:58;;;;;;;3.80;2.75;;;;;;;2.25;84.06;98112.88;4882341;29;20502;-58
2021/01/23 11:58:26;;;;;;;3.67;2.53;;;;;;;2.29;83.14;98119.44;4892964;29;20063;-60
2021/01/23 12:00:54;;;;;;;2.75;2.20;;;;;;;2.36;83.52;98118.34;4913740;29;20282;-59
2021/01/23 12:03:20;;;;;;;3.45;2.55;;;;;;;2.48;82.79;98121.91;4878712;29;20043;-58
2021/01/23 12:05:46;;;;;;;3.38;2.42;;;;;;;2.54;82.88;98125.53;4880665;29;20410;-58
2021/01/23 12:08:11;;;;;;;5.82;3.22;;;;;;;2.56;83.05;98123.47;4875489;29;20052;-59
2021/01/23 12:10:38;;;;;;;3.53;2.58;;;;;;;2.60;82.15;98118.53;4880167;29;20056;-60
2021/01/23 12:13:04;;;;;;;3.63;2.47;;;;;;;2.49;81.97;98123.56;4888070;29;20043;-59
2021/01/23 12:15:30;;;;;;;4.55;2.88;;;;;;;2.59;81.76;98119.56;4892804;29;20040;-59
2021/01/23 12:17:55;;;;;;;6.80;2.70;;;;;;;2.40;82.36;98124.06;4894305;29;20078;-59
2021/01/23 12:20:22;;;;;;;5.45;3.00;;;;;;;2.55;82.37;98119.19;4896010;29;20100;-59
2021/01/23 12:22:48;;;;;;;3.97;2.65;;;;;;;2.69;82.16;98125.22;4891694;29;20079;-59
2021/01/23 12:25:15;;;;;;;4.75;2.55;;;;;;;2.49;81.47;98128.06;4884532;29;20060;-59
2021/01/23 12:27:41;;;;;;;3.88;2.85;;;;;;;2.70;82.11;98133.00;4898781;29;20040;-59
2021/01/23 12:30:09;;;;;;;3.80;2.38;;;;;;;2.73;81.95;98127.25;4884637;29;20054;-59
2021/01/23 12:32:35;;;;;;;3.55;2.95;;;;;;;2.71;81.55;98133.81;4884749;29;20044;-60
2021/01/23 12:35:01;;;;;;;3.63;2.35;;;;;;;2.44;81.10;98136.72;4873987;29;20036;-60
2021/01/23 12:37:30;;;;;;;4.13;2.42;;;;;;;2.73;81.33;98140.59;4898371;29;20134;-60
2021/01/23 12:39:57;;;;;;;3.70;3.00;;;;;;;2.72;81.64;98140.78;4886966;29;20055;-59
2021/01/23 12:42:24;;;;;;;3.15;2.40;;;;;;;2.79;81.06;98149.53;4876013;29;20343;-59
2021/01/23 12:44:50;;;;;;;3.97;2.20;;;;;;;2.85;81.30;98140.69;4908707;29;20036;-58
2021/01/23 12:47:16;;;;;;;2.67;2.00;;;;;;;2.89;80.71;98149.84;4895113;29;20390;-59
2021/01/23 12:49:41;;;;;;;5.97;2.42;;;;;;;3.01;80.73;98144.59;4893675;29;20097;-59
2021/01/23 12:52:07;;;;;;;3.08;2.38;;;;;;;2.79;80.94;98152.22;4894356;29;20074;-59
2021/01/23 12:54:33;;;;;;;2.72;2.33;;;;;;;2.69;81.70;98149.22;4893748;29;20040;-60
2021/01/23 12:56:58;;;;;;;5.15;2.78;;;;;;;2.66;82.44;98133.66;4886889;29;20529;-58
2021/01/23 12:59:24;;;;;;;4.22;3.03;;;;;;;2.67;81.93;98140.63;4879802;29;20091;-58
2021/01/23 13:01:51;;;;;;;4.95;3.05;;;;;;;2.85;82.24;98138.81;4883115;29;20079;-59
2021/01/23 13:04:17;;;;;;;3.72;3.15;;;;;;;2.72;81.90;98140.78;4883490;29;20051;-59
2021/01/23 13:06:43;;;;;;;4.65;3.22;;;;;;;2.77;82.31;98139.09;4887424;29;20052;-59
2021/01/23 13:09:10;;;;;;;6.30;3.53;;;;;;;2.85;81.60;98138.81;4869543;29;20136;-60
2021/01/23 13:11:37;;;;;;;5.50;3.75;;;;;;;2.92;80.90;98142.22;4892721;29;20099;-60
2021/01/23 13:14:04;;;;;;;5.55;3.70;;;;;;;2.89;81.54;98144.50;4881580;29;20040;-59
2021/01/23 13:16:31;;;;;;;6.32;3.92;;;;;;;2.77;81.38;98148.97;4881832;29;20339;-61
2021/01/23 13:18:58;;;;;;;7.75;4.15;;;;;;;2.81;81.25;98158.16;4875167;29;20078;-59
2021/01/23 13:21:23;;;;;;;10.55;4.05;;;;;;;2.80;82.90;98154.66;4886309;29;20048;-59
2021/01/23 13:23:51;;;;;;;11.80;4.60;;;;;;;2.94;82.27;98144.69;4889160;29;20383;-59
2021/01/23 13:26:18;;;;;;;5.00;4.00;;;;;;;2.64;82.18;98147.25;4889048;29;20040;-59
2021/01/23 13:28:44;;;;;;;10.68;4.65;;;;;;;2.82;81.98;98144.59;4884175;29;20049;-59
2021/01/23 13:31:11;;;;;;;8.40;5.53;;;;;;;3.02;81.39;98154.25;4883373;29;20074;-60
2021/01/23 13:33:38;;;;;;;8.60;5.38;;;;;;;3.08;81.90;98153.38;4875692;29;20327;-58
2021/01/23 13:36:10;;;;;;;17.50;5.88;;;;;;;3.00;81.35;98149.13;4873341;29;20435;-59
2021/01/23 13:38:36;;;;;;;;;;;;;;;2.97;80.58;98146.91;4858839;29;20057;-59
2021/01/23 13:41:02;;;;;;;6.18;4.32;;;;;;;3.13;81.15;98149.00;4882216;29;19919;-59
2021/01/23 13:43:30;;;;;;;7.20;4.97;;;;;;;3.13;81.15;98154.31;4877085;29;20040;-59
2021/01/23 13:45:56;;;;;;;10.05;4.88;;;;;;;3.00;81.15;98159.00;4886351;29;20522;-59
2021/01/23 13:48:22;;;;;;;8.35;4.75;;;;;;;2.78;82.06;98167.41;4887745;29;20043;-62
2021/01/23 13:50:48;;;;;;;8.57;4.95;;;;;;;2.77;82.48;98183.66;4886443;29;20086;-60
2021/01/23 13:53:14;;;;;;;8.80;5.20;;;;;;;2.87;82.60;98171.44;4886944;29;20044;-59
2021/01/23 13:55:40;;;;;;;7.43;5.05;;;;;;;2.97;82.72;98170.13;4868774;29;20044;-59
2021/01/23 13:58:07;;;;;;;8.07;4.28;;;;;;;2.53;83.00;98166.63;4870914;29;20044;-60
2021/01/23 14:00:35;;;;;;;6.93;4.70;;;;;;;2.77;82.92;98168.44;4867677;29;20131;-59
2021/01/23 14:03:05;;;;;;;7.32;5.22;;;;;;;2.50;82.88;98172.38;4868779;29;20329;-60
2021/01/23 14:05:31;;;;;;;13.27;6.70;;;;;;;2.63;83.82;98179.47;4886399;29;20072;-59
2021/01/23 14:07:57;;;;;;;17.30;5.57;;;;;;;2.73;84.01;98179.78;4884684;29;20036;-59
2021/01/23 14:10:24;;;;;;;9.93;5.40;;;;;;;2.71;83.42;98185.34;4871638;29;20649;-59
2021/01/23 14:12:51;;;;;;;8.27;4.78;;;;;;;2.78;82.73;98186.09;4873557;29;20044;-60
2021/01/23 14:15:20;;;;;;;12.00;5.32;;;;;;;2.63;83.68;98182.94;4886680;29;20067;-59
2021/01/23 14:17:49;;;;;;;7.70;5.15;;;;;;;2.65;83.64;98186.22;4885102;29;20091;-60
2021/01/23 14:20:18;;;;;;;9.30;5.15;;;;;;;2.70;83.37;98188.22;4874919;29;20102;-59
2021/01/23 14:22:44;;;;;;;11.13;5.32;;;;;;;2.79;83.06;98194.91;4881784;29;20111;-59
2021/01/23 14:25:10;;;;;;;10.30;5.55;;;;;;;2.79;82.93;98195.72;4887591;29;20052;-60
2021/01/23 14:27:35;;;;;;;7.63;5.30;;;;;;;2.65;83.97;98190.75;4885006;29;20458;-59
2021/01/23 14:30:01;;;;;;;7.97;4.88;;;;;;;2.49;83.87;98187.56;4888306;29;20103;-60
2021/01/23 14:32:26;;;;;;;8.60;5.35;;;;;;;2.36;83.99;98190.31;4891654;29;20074;-59
2021/01/23 14:34:52;;;;;;;7.05;4.70;;;;;;;2.53;84.18;98199.44;4880908;29;20048;-62
2021/01/23 14:37:19;;;;;;;6.10;4.57;;;;;;;2.53;83.26;98199.44;4875904;29;20059;-59
2021/01/23 14:39:46;;;;;;;8.32;4.57;;;;;;;2.29;83.95;98205.56;4876827;29;20053;-59
2021/01/23 14:42:16;;;;;;;7.22;4.90;;;;;;;2.44;84.56;98214.06;4891830;29;20040;-59
2021/01/23 14:44:45;;;;;;;10.82;4.55;;;;;;;2.12;84.87;98210.56;4878057;29;21225;-58
2021/01/23 14:47:11;;;;;;;6.35;4.35;;;;;;;2.11;85.54;98200.94;4879092;29;20111;-58
2021/01/23 14:49:38;;;;;;;8.57;4.80;;;;;;;2.25;84.35;98209.69;4877826;29;20052;-60
2021/01/23 14:52:05;;;;;;;6.53;4.90;;;;;;;2.13;84.86;98206.06;4877793;29;20434;-58
2021/01/23 14:54:33;;;;;;;5.40;4.00;;;;;;;2.33;84.62;98204.09;4876945;29;20127;-58
2021/01/23 14:56:59;;;;;;;5.43;4.00;;;;;;;2.03;84.81;98195.06;4880251;29;20541;-59
2021/01/23 14:59:25;;;;;;;6.32;4.22;;;;;;;2.02;85.43;98204.06;4905634;29;20056;-58
2021/01/23 15:01:56;;;;;;;6.70;4.13;;;;;;;1.95;85.64;98200.66;4880487;29;20039;-58
2021/01/23 15:04:22;;;;;;;7.38;4.40;;;;;;;2.03;85.58;98203.88;4893588;29;20051;-58
2021/01/23 15:06:50;;;;;;;7.68;4.78;;;;;;;2.17;85.67;98201.94;4875637;29;20115;-59
2021/01/23 15:09:17;;;;;;;7.57;4.05;;;;;;;1.87;85.40;98204.34;4878822;29;20075;-60
2021/01/23 15:11:43;;;;;;;7.10;4.57;;;;;;;1.96;85.63;98202.28;4877075;29;20509;-59
2021/01/23 15:14:09;;;;;;;5.88;4.40;;;;;;;1.98;84.99;98209.00;4892286;29;20059;-58
2021/01/23 15:16:36;;;;;;;5.60;4.05;;;;;;;1.95;85.96;98214.78;4893066;29;20046;-59
2021/01/23 15:19:02;;;;;;;7.88;4.90;;;;;;;1.95;85.50;98216.63;4893620;29;20052;-59
2021/01/23 15:21:27;;;;;;;10.25;4.80;;;;;;;1.93;85.46;98198.19;4877783;29;20232;-58
2021/01/23 15:23:53;;;;;;;11.02;5.00;;;;;;;1.92;84.85;98206.38;4876448;29;20059;-59
2021/01/23 15:26:18;;;;;;;10.52;4.70;;;;;;;1.80;85.49;98204.41;4877465;29;20091;-58
2021/01/23 15:28:49;;;;;;;7.32;4.88;;;;;;;1.89;85.21;98206.81;4878981;29;20409;-58
2021/01/23 15:31:16;;;;;;;8.50;4.85;;;;;;;1.93;85.10;98206.19;4881075;29;20046;-59
2021/01/23 15:33:43;;;;;;;9.07;4.75;;;;;;;1.86;85.98;98199.22;4880583;29;20049;-58
2021/01/23 15:36:09;;;;;;;9.55;5.10;;;;;;;1.64;85.53;98210.19;4899792;29;20098;-59
2021/01/23 15:38:35;;;;;;;9.40;5.55;;;;;;;1.70;85.74;98203.22;4874745;29;20731;-59
2021/01/23 15:41:00;;;;;;;8.48;5.43;;;;;;;1.57;86.47;98200.59;4875980;29;20050;-59
2021/01/23 15:43:26;;;;;;;9.50;5.90;;;;;;;1.77;86.30;98196.81;4875023;29;20040;-58
2021/01/23 15:45:51;;;;;;;9.98;5.82;;;;;;;1.94;86.47;98196.34;4877712;29;20040;-58
2021/01/23 15:48:18;;;;;;;11.43;6.65;;;;;;;1.74;85.90;98199.06;4876053;29;20115;-61
2021/01/23 15:50:45;;;;;;;11.57;6.95;;;;;;;1.71;86.32;98202.19;4872837;29;20041;-59
2021/01/23 15:53:11;;;;;;;12.65;7.18;;;;;;;1.96;85.30;98207.59;4872586;29;20048;-59
2021/01/23 15:55:37;;;;;;;11.63;7.80;;;;;;;1.90;84.74;98209.25;4871802;29;20415;-59
2021/01/23 15:58:05;;;;;;;12.48;7.75;;;;;;;2.06;85.00;98215.97;4877740;29;20069;-62
2021/01/23 16:00:33;;;;;;;14.45;9.00;;;;;;;1.87;85.86;98204.34;4877863;29;20079;-59
2021/01/23 16:02:58;;;;;;;13.82;8.10;;;;;;;1.73;85.98;98197.47;4877954;29;20517;-59
2021/01/23 16:05:24;;;;;;;13.50;8.27;;;;;;;1.56;86.39;98194.47;4878165;29;20036;-59
2021/01/23 16:07:50;;;;;;;15.50;8.88;;;;;;;1.53;87.19;98199.38;4877980;29;20051;-59
2021/01/23 16:10:16;;;;;;;14.10;9.05;;;;;;;1.48;86.71;98201.88;4875816;29;20040;-59
2021/01/23 16:12:42;;;;;;;15.70;9.50;;;;;;;1.53;86.72;98196.72;4890074;29;20516;-59
2021/01/23 16:15:08;;;;;;;17.73;10.65;;;;;;;1.66;87.39;98202.00;4873113;29;20209;-59
2021/01/23 16:17:35;;;;;;;21.58;11.43;;;;;;;1.62;85.88;98204.25;4888710;29;20800;-59
2021/01/23 16:20:01;;;;;;;19.77;10.40;;;;;;;1.54;86.40;98193.84;4888440;29;20048;-59
2021/01/23 16:22:27;;;;;;;23.30;11.13;;;;;;;1.43;86.17;98200.66;4877356;29;20055;-58
2021/01/23 16:24:52;;;;;;;15.65;9.43;;;;;;;1.35;86.56;98200.88;4875852;29;20044;-60
2021/01/23 16:27:19;;;;;;;17.08;9.48;;;;;;;1.40;87.60;98198.41;4885324;29;20048;-59
2021/01/23 16:29:45;;;;;;;15.35;8.60;;;;;;;1.42;87.35;98200.84;4892319;29;20035;-59
2021/01/23 16:32:11;;;;;;;13.70;8.63;;;;;;;1.40;86.96;98203.72;4893826;29;20490;-59
2021/01/23 16:34:36;;;;;;;13.35;9.00;;;;;;;1.66;87.58;98209.97;4884668;29;20485;-60
2021/01/23 16:37:02;;;;;;;13.95;8.10;;;;;;;1.68;87.08;98218.59;4877495;29;20130;-59
2021/01/23 16:39:27;;;;;;;12.10;8.68;;;;;;;1.76;87.00;98213.84;4876021;29;20083;-59
2021/01/23 16:41:53;;;;;;;13.20;8.70;;;;;;;1.88;86.41;98218.50;4875467;29;20044;-59
2021/01/23 16:44:22;;;;;;;14.70;9.25;;;;;;;1.85;85.38;98219.72;4889160;29;20434;-58